Time;durP1;ratioP1;P1;durP2;ratioP2;P2;SDS_P1;SDS_P2;PMS_P1;PMS_P2;Temp;Humidity;BMP_temperature;BMP_pressure;BME280_temperature;BME280_humidity;BME280_pressure;Samples;Min_cycle;Max_cycle;Signal;HPM_P1;HPM_P2
2022/06/02 00:01:05;;;;;;;3.70;2.33;;;16.20;99.90;;;;;;4963325;28;20171;-67
2022/06/02 00:03:41;;;;;;;2.25;2.03;;;16.20;99.90;;;;;;4979740;28;20050;-71
2022/06/02 00:06:15;;;;;;;3.60;2.30;;;16.20;99.90;;;;;;4979809;28;20133;-63
2022/06/02 00:08:59;;;;;;;4.40;2.75;;;16.20;99.90;;;;;;4976490;28;20043;-63
2022/06/02 00:11:59;;;;;;;5.78;2.58;;;16.00;99.90;;;;;;4964103;28;20035;-66
2022/06/02 00:14:50;;;;;;;2.53;2.08;;;16.00;99.90;;;;;;4979560;28;20046;-62
2022/06/02 00:17:35;;;;;;;3.72;2.13;;;15.90;99.90;;;;;;4979875;28;20050;-74
2022/06/02 00:20:05;;;;;;;4.97;2.95;;;16.00;99.90;;;;;;4980036;28;20126;-69
2022/06/02 00:22:57;;;;;;;2.28;1.90;;;16.10;99.90;;;;;;4976515;28;20042;-68
2022/06/02 00:25:36;;;;;;;5.60;2.78;;;16.20;99.90;;;;;;4960437;28;20042;-69
2022/06/02 00:28:34;;;;;;;4.22;2.55;;;16.00;99.90;;;;;;4976622;28;20043;-62
2022/06/02 00:31:20;;;;;;;2.80;2.17;;;15.90;99.90;;;;;;4963337;28;20038;-73
2022/06/02 00:34:16;;;;;;;3.33;2.53;;;15.80;99.90;;;;;;4976408;28;20376;-74
2022/06/02 00:37:04;;;;;;;2.35;1.80;;;15.80;99.90;;;;;;4960729;28;20129;-62
2022/06/02 00:39:33;;;;;;;5.18;2.15;;;15.70;99.90;;;;;;4976531;28;20141;-62
2022/06/02 00:42:28;;;;;;;4.57;2.50;;;15.80;99.90;;;;;;4976372;28;20048;-62
2022/06/02 00:45:10;;;;;;;2.75;2.00;;;15.90;99.90;;;;;;4962202;28;20050;-62
2022/06/02 00:48:04;;;;;;;3.70;2.10;;;15.70;99.90;;;;;;4976312;28;20034;-63
2022/06/02 00:51:00;;;;;;;4.15;2.55;;;15.60;99.90;;;;;;4976149;28;20049;-62
2022/06/02 00:53:42;;;;;;;2.58;2.00;;;15.60;99.90;;;;;;4976288;28;20038;-62
2022/06/02 00:59:13;;;;;;;3.70;2.45;;;15.50;99.90;;;;;;4964593;28;20034;-74
2022/06/02 01:01:39;;;;;;;5.18;2.40;;;15.60;99.90;;;;;;4976125;28;20414;-62
2022/06/02 01:04:11;;;;;;;6.35;3.13;;;15.60;99.90;;;;;;4976163;28;20039;-74
2022/06/02 01:06:55;;;;;;;2.42;2.22;;;15.40;99.90;;;;;;4975593;28;20065;-62
2022/06/02 01:09:44;;;;;;;6.35;2.90;;;15.30;99.90;;;;;;4975379;28;20149;-62
2022/06/02 01:12:51;;;;;;;2.58;2.13;;;15.50;99.90;;;;;;4969773;28;20126;-62
2022/06/02 01:15:45;;;;;;;5.40;2.65;;;15.60;99.90;;;;;;4972667;28;20592;-66
2022/06/02 01:18:10;;;;;;;6.65;2.53;;;15.80;99.90;;;;;;4973537;28;20047;-62
2022/06/02 01:20:51;;;;;;;3.38;2.10;;;15.90;99.90;;;;;;4974153;28;20118;-73
2022/06/02 01:23:35;;;;;;;6.00;2.60;;;15.80;99.90;;;;;;4975445;28;20058;-67
2022/06/02 01:26:05;;;;;;;2.20;2.00;;;15.90;99.90;;;;;;4975317;28;20170;-74
2022/06/02 01:28:38;;;;;;;7.20;2.85;;;15.80;99.90;;;;;;4975474;28;20046;-73
2022/06/02 01:31:13;;;;;;;5.72;2.88;;;15.80;99.90;;;;;;4975677;28;20077;-71
2022/06/02 01:33:45;;;;;;;4.78;2.10;;;15.80;99.90;;;;;;4974264;28;20047;-72
2022/06/02 01:36:22;;;;;;;3.65;2.17;;;15.80;99.90;;;;;;4975237;28;20046;-66
2022/06/02 01:39:06;;;;;;;6.57;2.72;;;15.80;99.90;;;;;;4960446;28;20434;-67
2022/06/02 01:42:15;;;;;;;5.05;2.40;;;15.80;99.90;;;;;;4975081;28;20073;-74
2022/06/02 01:45:16;;;;;;;6.50;2.30;;;15.80;99.90;;;;;;4959085;28;20043;-72
2022/06/02 01:47:43;;;;;;;4.55;2.58;;;15.70;99.90;;;;;;4975020;28;20129;-62
2022/06/02 01:50:37;;;;;;;4.78;2.40;;;15.60;99.90;;;;;;4964913;28;20058;-68
2022/06/02 01:53:26;;;;;;;4.15;2.17;;;15.30;99.90;;;;;;4962018;28;20034;-73
2022/06/02 01:56:14;;;;;;;4.72;2.15;;;15.10;99.90;;;;;;4974929;28;20042;-70
2022/06/02 01:59:12;;;;;;;6.55;2.15;;;15.20;99.90;;;;;;4974634;28;20035;-73
2022/06/02 02:02:01;;;;;;;2.60;2.10;;;15.30;99.90;;;;;;4974736;28;20047;-74
2022/06/02 02:04:33;;;;;;;4.35;2.50;;;15.30;99.90;;;;;;4953835;28;20118;-67
2022/06/02 02:06:59;;;;;;;4.53;2.78;;;15.50;99.90;;;;;;4974829;28;20410;-66
2022/06/02 02:09:36;;;;;;;5.65;2.38;;;15.60;99.90;;;;;;4977525;28;20054;-64
2022/06/02 02:12:05;;;;;;;3.53;2.05;;;15.60;99.90;;;;;;4974826;28;20062;-73
2022/06/02 02:14:49;;;;;;;3.83;2.20;;;15.60;99.90;;;;;;4974617;28;20498;-62
2022/06/02 02:17:32;;;;;;;3.35;2.25;;;15.70;99.90;;;;;;4974485;28;20114;-73
2022/06/02 02:20:31;;;;;;;2.45;1.90;;;15.50;99.90;;;;;;4974425;28;20042;-74
2022/06/02 02:23:05;;;;;;;4.18;1.90;;;15.20;99.90;;;;;;4970943;28;20407;-70
2022/06/02 02:26:03;;;;;;;3.05;2.22;;;15.20;99.90;;;;;;4974409;28;20082;-67
2022/06/02 02:28:42;;;;;;;3.03;1.98;;;15.30;99.90;;;;;;4966505;28;20521;-62
2022/06/02 02:31:26;;;;;;;2.78;2.03;;;15.50;99.90;;;;;;4974544;28;20121;-73
2022/06/02 02:34:30;;;;;;;2.55;1.65;;;15.70;99.90;;;;;;4974458;28;20129;-73
2022/06/02 02:37:14;;;;;;;3.22;2.10;;;15.60;99.90;;;;;;4939141;28;20046;-62
2022/06/02 02:40:05;;;;;;;4.45;2.05;;;15.60;99.90;;;;;;4973848;28;20084;-69
2022/06/02 02:42:47;;;;;;;4.20;2.22;;;15.70;99.90;;;;;;4974248;28;20097;-67
2022/06/02 02:45:44;;;;;;;3.15;1.90;;;15.40;99.90;;;;;;4972186;28;20054;-63
2022/06/02 02:48:32;;;;;;;7.88;2.65;;;15.20;99.90;;;;;;4972786;28;20130;-73
2022/06/02 02:51:17;;;;;;;6.18;2.60;;;15.00;99.90;;;;;;4960248;28;20422;-73
2022/06/02 02:54:18;;;;;;;3.53;2.45;;;15.00;99.90;;;;;;4974264;28;20436;-73
2022/06/02 02:57:04;;;;;;;4.57;2.42;;;15.00;99.90;;;;;;4958624;28;20125;-62
2022/06/02 03:00:19;;;;;;;8.13;3.25;;;15.00;99.90;;;;;;4974065;28;20546;-70
2022/06/02 03:02:55;;;;;;;3.85;2.20;;;15.00;99.90;;;;;;4933270;28;20038;-71
2022/06/02 03:05:39;;;;;;;5.43;2.70;;;15.10;99.90;;;;;;4973975;28;20043;-68
2022/06/02 03:08:18;;;;;;;2.40;2.03;;;15.20;99.90;;;;;;4973393;28;20578;-62
2022/06/02 03:10:50;;;;;;;12.85;3.25;;;14.80;99.90;;;;;;4973951;28;20046;-62
2022/06/02 03:13:47;;;;;;;3.35;2.47;;;14.80;99.90;;;;;;4973975;28;20046;-74
2022/06/02 03:16:14;;;;;;;5.05;3.08;;;14.50;99.90;;;;;;4971811;28;20162;-71
2022/06/02 03:19:06;;;;;;;2.67;2.42;;;14.40;99.90;;;;;;4968368;28;20129;-74
2022/06/02 03:21:36;;;;;;;3.97;2.58;;;14.60;99.90;;;;;;4974024;28;20101;-73
2022/06/02 03:24:35;;;;;;;2.80;2.10;;;14.80;99.90;;;;;;4973874;28;20046;-74
2022/06/02 03:27:31;;;;;;;4.43;2.58;;;14.80;99.90;;;;;;4960442;28;20479;-73
2022/06/02 03:30:20;;;;;;;3.25;2.03;;;14.70;99.90;;;;;;4973632;28;20105;-62
2022/06/02 03:33:10;;;;;;;2.15;1.95;;;14.80;99.90;;;;;;4958340;28;20465;-63
2022/06/02 03:35:59;;;;;;;2.70;2.20;;;15.00;99.90;;;;;;4973455;28;20043;-72
2022/06/02 03:39:00;;;;;;;3.97;2.40;;;15.10;99.90;;;;;;4973612;28;20104;-66
2022/06/02 03:42:03;;;;;;;4.65;2.17;;;15.20;99.90;;;;;;4973477;28;20054;-73
2022/06/02 03:44:34;;;;;;;3.97;1.90;;;15.40;99.90;;;;;;4973751;28;20042;-70
2022/06/02 03:47:28;;;;;;;5.88;2.47;;;15.60;99.90;;;;;;4973734;28;20041;-69
2022/06/02 03:49:56;;;;;;;2.30;1.92;;;15.60;99.90;;;;;;4972588;28;20125;-63
2022/06/02 03:52:29;;;;;;;2.78;2.03;;;15.60;99.90;;;;;;4969846;28;20507;-64
2022/06/02 03:55:19;;;;;;;4.07;2.15;;;15.60;99.90;;;;;;4973372;28;20034;-72
2022/06/02 03:57:59;;;;;;;4.45;2.13;;;15.60;99.90;;;;;;4975484;28;20118;-72
2022/06/02 04:00:52;;;;;;;4.68;1.95;;;15.50;99.90;;;;;;4977194;28;20101;-70
2022/06/02 04:03:40;;;;;;;5.82;1.90;;;15.20;99.90;;;;;;4972793;28;20588;-73
2022/06/02 04:06:31;;;;;;;3.05;2.05;;;;;;;;;;4977159;28;20050;-65
2022/06/02 04:09:38;;;;;;;2.45;2.03;;;15.30;99.90;;;;;;4964852;28;20565;-67
2022/06/02 04:16:01;;;;;;;3.38;1.83;;;15.50;99.90;;;;;;4955964;28;20088;-72
2022/06/02 04:18:48;;;;;;;5.45;2.30;;;15.50;99.90;;;;;;4976917;28;20522;-64
2022/06/02 04:21:47;;;;;;;5.47;2.13;;;15.40;99.90;;;;;;4976403;28;20065;-62
2022/06/02 04:24:24;;;;;;;4.72;2.10;;;15.30;99.90;;;;;;4973113;28;20038;-62
2022/06/02 04:27:25;;;;;;;4.75;2.20;;;15.40;99.90;;;;;;4961756;28;20069;-68
2022/06/02 04:30:01;;;;;;;4.60;2.60;;;15.50;99.90;;;;;;4976287;28;20587;-63
2022/06/02 04:32:51;;;;;;;5.40;2.67;;;15.60;99.90;;;;;;4976156;28;20137;-66
2022/06/02 04:35:22;;;;;;;8.13;2.15;;;15.50;99.90;;;;;;4976407;28;20414;-62
2022/06/02 04:38:12;;;;;;;6.60;2.38;;;15.50;99.90;;;;;;4976476;28;20042;-65
2022/06/02 04:40:53;;;;;;;6.30;2.60;;;15.50;99.90;;;;;;4976544;28;20047;-71
2022/06/02 04:43:43;;;;;;;6.07;2.72;;;15.20;99.90;;;;;;4976442;28;20039;-70
2022/06/02 04:46:34;;;;;;;3.22;2.25;;;15.00;99.90;;;;;;4976277;28;20054;-67
2022/06/02 04:49:20;;;;;;;3.80;2.55;;;15.10;99.90;;;;;;4963126;28;20422;-65
2022/06/02 04:52:20;;;;;;;3.08;2.22;;;15.20;99.90;;;;;;4976247;28;20597;-74
2022/06/02 04:55:11;;;;;;;3.75;1.92;;;15.10;99.90;;;;;;4963020;28;20392;-73
2022/06/02 04:58:00;;;;;;;;;;;15.00;99.90;;;;;;4970997;28;20530;-73
2022/06/02 05:00:47;;;;;;;3.05;2.40;;;15.00;99.90;;;;;;4970145;28;19914;-69
2022/06/02 05:03:40;;;;;;;3.85;2.55;;;15.10;99.90;;;;;;4975792;28;20039;-62
2022/06/02 05:06:27;;;;;;;9.95;3.00;;;15.20;99.90;;;;;;4973198;28;20077;-69
2022/06/02 05:08:56;;;;;;;6.60;2.67;;;15.20;99.90;;;;;;4961285;28;20533;-73
2022/06/02 05:11:37;;;;;;;5.07;2.50;;;15.20;99.90;;;;;;4976014;28;20046;-63
2022/06/02 05:14:11;;;;;;;;;;;15.20;99.90;;;;;;4976330;28;20042;-62
2022/06/02 05:16:50;;;;;;;4.78;3.20;;;15.20;99.90;;;;;;4975818;28;19921;-63
2022/06/02 05:19:28;;;;;;;6.85;2.47;;;15.30;99.90;;;;;;4972928;28;20046;-73
2022/06/02 05:22:15;;;;;;;5.88;2.88;;;15.30;99.90;;;;;;4972820;28;20046;-70
2022/06/02 05:25:12;;;;;;;5.68;2.80;;;15.30;99.90;;;;;;4970536;28;20045;-63
2022/06/02 05:27:43;;;;;;;5.32;2.65;;;15.30;99.90;;;;;;4975182;28;20042;-67
2022/06/02 05:30:33;;;;;;;7.65;2.85;;;15.50;99.90;;;;;;4974506;28;20047;-73
2022/06/02 05:33:08;;;;;;;5.45;2.88;;;15.30;99.90;;;;;;4971376;28;20035;-73
2022/06/02 05:35:43;;;;;;;8.82;3.50;;;15.30;99.90;;;;;;4972339;28;20043;-63
2022/06/02 05:38:33;;;;;;;4.70;3.00;;;15.20;99.90;;;;;;4974940;28;20039;-67
2022/06/02 05:41:04;;;;;;;3.97;2.55;;;15.30;99.90;;;;;;4975714;28;20045;-68
2022/06/02 05:43:46;;;;;;;5.43;3.00;;;15.40;99.90;;;;;;4975617;28;20150;-75
2022/06/02 05:46:35;;;;;;;4.80;2.78;;;15.60;99.90;;;;;;4975465;28;20038;-64
2022/06/02 05:49:20;;;;;;;5.88;3.08;;;15.60;99.90;;;;;;4975400;28;20057;-69
2022/06/02 05:52:19;;;;;;;5.82;3.00;;;15.80;99.90;;;;;;4975422;28;20122;-72
2022/06/02 05:55:19;;;;;;;6.07;3.15;;;16.00;99.90;;;;;;4974691;28;20483;-72
2022/06/02 05:58:35;;;;;;;6.63;3.05;;;16.20;99.90;;;;;;4964288;28;20466;-64
2022/06/02 06:01:13;;;;;;;6.22;3.10;;;16.50;99.90;;;;;;4970537;28;20062;-71
2022/06/02 06:03:47;;;;;;;5.25;2.38;;;17.00;99.90;;;;;;4972080;28;20130;-68
2022/06/02 06:06:44;;;;;;;4.80;2.70;;;17.30;99.90;;;;;;4974196;28;20045;-72
2022/06/02 06:09:25;;;;;;;2.92;2.40;;;17.50;99.90;;;;;;4959951;28;20065;-73
2022/06/02 06:12:09;;;;;;;6.38;2.92;;;17.40;99.90;;;;;;4975082;28;20047;-72
2022/06/02 06:14:58;;;;;;;4.97;3.00;;;17.10;99.90;;;;;;4973027;28;20041;-70
2022/06/02 06:18:02;;;;;;;3.60;2.50;;;17.40;99.90;;;;;;4974549;28;20051;-64
2022/06/02 06:20:55;;;;;;;6.80;2.95;;;17.40;99.90;;;;;;4969429;28;20391;-71
2022/06/02 06:23:32;;;;;;;4.85;2.50;;;17.60;99.90;;;;;;4972328;28;20542;-70
2022/06/02 06:26:14;;;;;;;5.25;2.42;;;;;;;;;;4972866;28;20046;-69
2022/06/02 06:29:11;;;;;;;5.05;2.55;;;17.90;99.90;;;;;;4974432;28;20050;-72
2022/06/02 06:31:57;;;;;;;5.47;3.13;;;17.90;99.90;;;;;;4964732;28;20198;-72
2022/06/02 06:34:42;;;;;;;3.67;2.47;;;17.80;99.90;;;;;;4974769;28;20142;-67
2022/06/02 06:37:17;;;;;;;3.90;2.70;;;17.70;99.90;;;;;;4974715;28;20041;-72
2022/06/02 06:40:11;;;;;;;5.93;2.40;;;17.60;99.90;;;;;;4974515;28;20047;-69
2022/06/02 06:43:01;;;;;;;7.28;3.00;;;17.80;99.90;;;;;;4974405;28;20203;-72
2022/06/02 06:45:30;;;;;;;;;;;18.10;99.90;;;;;;4975121;28;20130;-73
2022/06/02 06:48:20;;;;;;;4.43;2.88;;;18.30;99.90;;;;;;4974440;28;19910;-71
2022/06/02 06:50:55;;;;;;;5.88;2.63;;;18.40;99.90;;;;;;4974542;28;20388;-74
2022/06/02 06:53:32;;;;;;;7.13;3.17;;;18.50;99.90;;;;;;4974458;28;20039;-69
2022/06/02 06:56:17;;;;;;;4.55;1.75;;;18.40;99.90;;;;;;4974306;28;20125;-66
2022/06/02 06:59:04;;;;;;;2.88;1.77;;;18.50;99.90;;;;;;4974326;28;20042;-80
2022/06/02 07:01:57;;;;;;;2.75;2.15;;;18.50;99.90;;;;;;4974076;28;20102;-78
2022/06/02 07:05:04;;;;;;;7.53;2.20;;;18.50;99.90;;;;;;4973934;28;20141;-75
2022/06/02 07:07:36;;;;;;;5.25;2.20;;;18.40;99.90;;;;;;4957255;28;20038;-75
2022/06/02 07:10:21;;;;;;;4.90;1.85;;;18.60;99.90;;;;;;4974289;28;20083;-82
2022/06/02 07:13:05;;;;;;;4.82;2.30;;;18.70;99.90;;;;;;4954993;29;20125;-81
2022/06/02 07:15:44;;;;;;;4.60;2.53;;;18.70;99.90;;;;;;4954969;28;20050;-82
2022/06/02 07:18:43;;;;;;;4.38;2.22;;;18.90;99.90;;;;;;4954911;28;20066;-76
2022/06/02 07:21:36;;;;;;;3.45;2.22;;;19.00;99.90;;;;;;4962069;28;20078;-82
2022/06/02 07:24:27;;;;;;;1.70;1.60;;;19.40;99.90;;;;;;4973943;28;20042;-67
2022/06/02 07:27:12;;;;;;;3.58;2.40;;;19.30;99.90;;;;;;4973948;28;20049;-63
2022/06/02 07:29:59;;;;;;;3.10;2.03;;;19.30;99.90;;;;;;4973931;28;20502;-76
2022/06/02 07:32:40;;;;;;;4.47;2.70;;;19.10;99.90;;;;;;4976882;28;20053;-63
2022/06/02 07:35:31;;;;;;;3.22;2.38;;;18.90;99.90;;;;;;4977672;28;20051;-71
2022/06/02 07:38:28;;;;;;;5.53;2.80;;;18.90;99.90;;;;;;4976547;28;20169;-69
2022/06/02 07:41:15;;;;;;;4.35;2.38;;;18.90;99.90;;;;;;4976713;28;20038;-74
2022/06/02 07:44:13;;;;;;;4.50;2.42;;;18.70;99.90;;;;;;4977271;28;20046;-77
2022/06/02 07:47:11;;;;;;;3.58;2.20;;;19.20;99.90;;;;;;4970015;28;20045;-79
2022/06/02 07:50:09;;;;;;;14.43;3.90;;;;;;;;;;4977400;28;20051;-73
2022/06/02 07:52:40;;;;;;;5.95;2.83;;;20.10;99.90;;;;;;4965600;28;20046;-77
2022/06/02 07:55:25;;;;;;;7.72;2.60;;;20.30;99.90;;;;;;4977549;28;20136;-80
2022/06/02 07:58:09;;;;;;;4.78;2.72;;;;;;;;;;4977114;28;20093;-69
2022/06/02 08:00:51;;;;;;;4.47;2.47;;;20.80;99.90;;;;;;4977532;28;20038;-80
2022/06/02 08:03:53;;;;;;;3.53;2.20;;;20.60;99.90;;;;;;4977341;28;20137;-73
2022/06/02 08:06:55;;;;;;;4.45;2.47;;;20.60;99.90;;;;;;4977335;28;20035;-79
2022/06/02 08:09:35;;;;;;;4.68;2.55;;;20.40;99.90;;;;;;4977173;28;20055;-64
2022/06/02 08:12:08;;;;;;;;;;;20.00;99.90;;;;;;4977364;28;20054;-65
2022/06/02 08:14:48;;;;;;;7.30;2.45;;;19.80;99.90;;;;;;4977379;28;19917;-78
2022/06/02 08:17:23;;;;;;;4.63;2.28;;;19.60;99.90;;;;;;4977332;28;20442;-71
2022/06/02 08:20:14;;;;;;;4.75;2.30;;;19.70;99.90;;;;;;4977231;28;20402;-72
2022/06/02 08:23:07;;;;;;;3.75;2.67;;;19.90;99.90;;;;;;4977042;28;20034;-78
2022/06/02 08:25:46;;;;;;;5.60;2.97;;;20.10;99.90;;;;;;4977105;28;20099;-78
2022/06/02 08:28:37;;;;;;;4.40;2.70;;;20.20;99.90;;;;;;4977003;28;20050;-69
2022/06/02 08:31:16;;;;;;;4.97;2.75;;;20.70;99.90;;;;;;4976913;28;20499;-78
2022/06/02 08:33:58;;;;;;;13.35;3.13;;;21.10;99.90;;;;;;4977032;28;20134;-76
2022/06/02 08:36:32;;;;;;;5.38;3.30;;;21.30;99.90;;;;;;4977026;28;20061;-79
2022/06/02 08:39:16;;;;;;;3.33;2.92;;;21.70;99.90;;;;;;4976751;28;20035;-74
2022/06/02 08:42:20;;;;;;;4.57;2.38;;;22.10;99.90;;;;;;4976636;28;20043;-80
2022/06/02 08:45:00;;;;;;;7.88;2.92;;;22.50;99.90;;;;;;4935690;29;20103;-80
2022/06/02 08:47:44;;;;;;;;;;;22.50;99.90;;;;;;4973489;28;20454;-64
2022/06/02 08:50:21;;;;;;;4.45;2.67;;;22.60;99.90;;;;;;4976399;28;19918;-80
2022/06/02 08:53:24;;;;;;;7.68;2.50;;;22.40;99.90;;;;;;4976696;28;20035;-80
2022/06/02 08:56:09;;;;;;;6.10;2.80;;;22.60;99.90;;;;;;4976382;28;20037;-80
2022/06/02 08:58:43;;;;;;;3.92;2.50;;;22.30;99.90;;;;;;4976567;28;20089;-80
2022/06/02 09:01:47;;;;;;;6.00;2.70;;;22.30;99.90;;;;;;4976442;28;20073;-80
2022/06/02 09:04:37;;;;;;;5.80;2.70;;;22.70;99.90;;;;;;4976188;28;20102;-76
2022/06/02 09:07:06;;;;;;;;;;;23.10;99.90;;;;;;4976807;28;20046;-77
2022/06/02 09:10:03;;;;;;;7.72;2.28;;;23.30;99.90;;;;;;4976163;28;19925;-80
2022/06/02 09:13:06;;;;;;;5.15;2.80;;;23.10;99.90;;;;;;4976175;28;20097;-65
2022/06/02 09:15:53;;;;;;;6.13;2.08;;;22.90;99.90;;;;;;4976220;28;20071;-67
2022/06/02 09:18:24;;;;;;;6.97;2.78;;;;;;;;;;4976051;28;20046;-68
2022/06/02 09:21:13;;;;;;;5.55;2.38;;;22.40;99.90;;;;;;4975899;28;20049;-70
2022/06/02 09:24:06;;;;;;;3.85;2.65;;;22.20;99.90;;;;;;4972355;28;20054;-67
2022/06/02 09:26:59;;;;;;;5.63;2.95;;;22.50;99.90;;;;;;4973834;28;20129;-79
2022/06/02 09:29:46;;;;;;;5.72;2.03;;;22.80;99.90;;;;;;4975498;28;20529;-85
2022/06/02 09:32:47;;;;;;;5.38;2.50;;;22.70;99.90;;;;;;4975872;28;20039;-85
2022/06/02 09:35:23;;;;;;;7.43;3.08;;;22.80;99.90;;;;;;4975940;28;20565;-87
2022/06/02 09:38:15;;;;;;;3.42;2.47;;;23.10;99.90;;;;;;4975733;28;20409;-81
2022/06/02 09:40:50;;;;;;;5.53;2.97;;;23.00;99.90;;;;;;4975538;28;20046;-80
2022/06/02 09:43:25;;;;;;;6.28;2.90;;;23.50;99.90;;;;;;4975681;28;20035;-86
2022/06/02 09:46:03;;;;;;;4.97;2.95;;;23.10;99.90;;;;;;4975612;28;20043;-87
2022/06/02 09:48:56;;;;;;;7.43;2.90;;;23.00;99.90;;;;;;4975457;28;20051;-85
2022/06/02 09:51:43;;;;;;;10.50;3.67;;;22.80;99.90;;;;;;4975418;28;20046;-83
2022/06/02 09:54:49;;;;;;;9.02;3.15;;;22.80;99.90;;;;;;4974414;28;20512;-71
2022/06/02 09:57:56;;;;;;;6.82;3.63;;;22.60;99.90;;;;;;4975275;28;20057;-85
2022/06/02 10:00:40;;;;;;;5.03;3.17;;;22.50;99.90;;;;;;4975235;28;20426;-84
2022/06/02 10:03:30;;;;;;;7.75;3.33;;;22.40;99.90;;;;;;4975278;28;20047;-82
2022/06/02 10:06:27;;;;;;;12.10;3.65;;;22.40;99.90;;;;;;4975323;28;20047;-80
2022/06/02 10:09:31;;;;;;;6.15;2.67;;;22.30;99.90;;;;;;4974698;28;20059;-83
2022/06/02 10:15:36;;;;;;;11.25;4.05;;;22.30;99.90;;;;;;4975047;28;20042;-82
2022/06/02 10:18:25;;;;;;;7.32;3.67;;;22.60;99.90;;;;;;4975065;28;20051;-77
2022/06/02 10:21:13;;;;;;;7.97;4.40;;;23.10;99.90;;;;;;4947501;28;20042;-67
2022/06/02 10:24:07;;;;;;;5.53;3.60;;;22.90;99.90;;;;;;4974910;28;20185;-76
2022/06/02 10:26:55;;;;;;;5.00;3.08;;;22.80;99.90;;;;;;4974970;28;20085;-80
2022/06/02 10:29:21;;;;;;;8.95;4.10;;;22.90;99.90;;;;;;4974844;28;20051;-80
2022/06/02 10:32:16;;;;;;;8.02;3.63;;;23.30;99.90;;;;;;4974744;28;20070;-63
2022/06/02 10:34:42;;;;;;;7.22;3.60;;;23.90;99.90;;;;;;4974601;28;20507;-84
2022/06/02 10:37:43;;;;;;;8.82;3.85;;;23.60;99.90;;;;;;4974699;28;20097;-84
2022/06/02 10:40:28;;;;;;;4.82;3.72;;;23.70;99.90;;;;;;4964178;28;20045;-83
2022/06/02 10:43:18;;;;;;;13.55;3.88;;;23.70;99.90;;;;;;4974572;28;20109;-84
2022/06/02 10:46:29;;;;;;;10.90;3.73;;;23.70;99.90;;;;;;4974472;28;20047;-83
2022/06/02 10:49:30;;;;;;;6.43;3.63;;;23.90;99.90;;;;;;4972701;28;20405;-66
2022/06/02 10:52:34;;;;;;;10.95;4.40;;;23.80;99.90;;;;;;4974563;28;20065;-84
2022/06/02 10:55:35;;;;;;;8.88;4.13;;;23.40;99.90;;;;;;4974509;28;20038;-80
2022/06/02 10:58:28;;;;;;;10.25;4.90;;;23.90;99.90;;;;;;4974497;28;20050;-73
2022/06/02 11:01:13;;;;;;;15.63;4.53;;;24.10;99.90;;;;;;4974394;28;20125;-66
2022/06/02 11:03:57;;;;;;;10.38;4.65;;;24.30;99.90;;;;;;4974303;28;20049;-82
2022/06/02 11:06:57;;;;;;;8.88;3.85;;;24.10;99.90;;;;;;4974133;28;20050;-66
2022/06/02 11:09:42;;;;;;;8.45;4.40;;;24.70;99.90;;;;;;4974356;28;20128;-64
2022/06/02 11:12:30;;;;;;;5.28;3.63;;;24.60;99.90;;;;;;4974422;28;20043;-73
2022/06/02 11:15:15;;;;;;;13.30;4.80;;;24.40;99.90;;;;;;4973500;28;20078;-70
2022/06/02 11:18:18;;;;;;;8.70;4.10;;;24.00;99.90;;;;;;4973882;28;20506;-70
2022/06/02 11:21:02;;;;;;;10.93;4.40;;;23.70;99.90;;;;;;4973820;28;20078;-69
2022/06/02 11:24:28;;;;;;;10.05;4.00;;;23.10;99.90;;;;;;4972315;28;20039;-64
2022/06/02 11:27:02;;;;;;;10.05;4.20;;;22.90;99.90;;;;;;4972645;28;20510;-77
2022/06/02 11:29:49;;;;;;;9.48;4.35;;;22.80;99.90;;;;;;4972512;28;20503;-67
2022/06/02 11:32:49;;;;;;;9.10;4.10;;;23.00;99.90;;;;;;4972025;28;20510;-68
2022/06/02 11:35:38;;;;;;;7.13;3.67;;;23.00;99.90;;;;;;4973968;28;20046;-67
2022/06/02 11:38:07;;;;;;;8.00;3.47;;;22.70;99.90;;;;;;4973887;28;20173;-77
2022/06/02 11:40:33;;;;;;;10.68;3.75;;;22.70;99.90;;;;;;4974095;28;20414;-65
2022/06/02 11:43:24;;;;;;;14.02;4.13;;;22.70;99.90;;;;;;4971430;28;20035;-77
2022/06/02 11:45:59;;;;;;;6.72;3.10;;;22.60;99.90;;;;;;4971310;28;20047;-75
2022/06/02 11:48:41;;;;;;;9.13;3.55;;;22.50;99.90;;;;;;4971985;28;20069;-76
2022/06/02 11:51:19;;;;;;;10.77;3.80;;;22.40;99.90;;;;;;4972708;28;20508;-76
2022/06/02 11:53:48;;;;;;;9.82;3.85;;;22.40;99.90;;;;;;4973530;28;20045;-65
2022/06/02 11:56:36;;;;;;;7.43;3.35;;;22.50;99.90;;;;;;4973622;28;20054;-71
2022/06/02 11:59:31;;;;;;;10.23;3.83;;;22.60;99.90;;;;;;4971395;28;20125;-77
2022/06/02 12:02:29;;;;;;;8.82;3.30;;;23.20;99.90;;;;;;4955805;28;20047;-71
2022/06/02 12:05:28;;;;;;;7.93;3.28;;;23.70;99.90;;;;;;4918249;28;20136;-76
2022/06/02 12:08:18;;;;;;;5.07;2.97;;;24.00;99.90;;;;;;4971296;28;20046;-69
2022/06/02 12:10:55;;;;;;;9.75;3.08;;;24.00;99.90;;;;;;4972435;28;20047;-65
2022/06/02 12:13:44;;;;;;;8.45;3.08;;;23.80;99.90;;;;;;4973010;28;20047;-77
2022/06/02 12:16:34;;;;;;;5.43;3.00;;;23.70;99.90;;;;;;4971101;28;20510;-75
2022/06/02 12:19:34;;;;;;;18.00;3.35;;;23.60;99.90;;;;;;4973717;28;20046;-76
2022/06/02 12:22:24;;;;;;;11.65;3.58;;;23.40;99.90;;;;;;4976185;28;20038;-70
2022/06/02 12:25:04;;;;;;;12.13;4.50;;;23.40;99.90;;;;;;4975741;28;20049;-69
2022/06/02 12:28:03;;;;;;;10.38;3.60;;;23.50;99.90;;;;;;4974418;28;20039;-77
2022/06/02 12:30:59;;;;;;;11.15;3.60;;;23.30;99.90;;;;;;4941858;28;20404;-66
2022/06/02 12:33:30;;;;;;;10.57;3.80;;;23.30;99.90;;;;;;4974828;28;20049;-65
2022/06/02 12:36:29;;;;;;;10.15;3.40;;;23.20;99.90;;;;;;4974604;28;20046;-75
2022/06/02 12:39:46;;;;;;;7.38;3.58;;;23.10;99.90;;;;;;4974202;28;20081;-67
2022/06/02 12:42:41;;;;;;;9.00;3.75;;;23.00;99.90;;;;;;4942450;28;20522;-78
2022/06/02 12:45:23;;;;;;;7.07;3.70;;;23.10;99.90;;;;;;4976175;28;20050;-76
2022/06/02 12:48:18;;;;;;;8.85;3.38;;;23.10;99.90;;;;;;4974110;28;20042;-78
2022/06/02 12:51:06;;;;;;;6.53;3.15;;;23.10;99.90;;;;;;4974315;28;20046;-77
2022/06/02 12:54:06;;;;;;;10.32;3.65;;;22.90;99.90;;;;;;4974401;28;20045;-77
2022/06/02 12:56:54;;;;;;;8.93;2.45;;;22.80;99.90;;;;;;4974114;28;20100;-78
2022/06/02 12:59:28;;;;;;;6.47;3.15;;;22.60;99.90;;;;;;4974501;28;20051;-66
2022/06/02 13:02:18;;;;;;;11.05;3.30;;;22.70;99.90;;;;;;4974069;28;20467;-77
2022/06/02 13:05:28;;;;;;;10.93;2.95;;;22.80;99.90;;;;;;4974372;28;20396;-73
2022/06/02 13:08:15;;;;;;;10.68;3.22;;;22.80;99.90;;;;;;4941199;28;20121;-78
2022/06/02 13:10:48;;;;;;;7.88;2.80;;;22.80;99.90;;;;;;4974332;28;20438;-68
2022/06/02 13:13:39;;;;;;;9.27;3.03;;;22.80;99.90;;;;;;4974275;28;20049;-76
2022/06/02 13:16:28;;;;;;;8.00;3.55;;;23.00;99.90;;;;;;4975591;28;20181;-76
2022/06/02 13:19:32;;;;;;;6.65;3.28;;;22.80;99.90;;;;;;4975331;28;20039;-77
2022/06/02 13:22:28;;;;;;;6.95;3.45;;;22.80;99.90;;;;;;4973482;28;20061;-77
2022/06/02 13:24:59;;;;;;;9.27;3.38;;;22.60;99.90;;;;;;4952263;28;20494;-76
2022/06/02 13:27:57;;;;;;;11.60;4.78;;;22.80;99.90;;;;;;4971600;28;20518;-67
2022/06/02 13:30:35;;;;;;;7.15;3.90;;;23.00;99.90;;;;;;4973086;28;20077;-66
2022/06/02 13:33:47;;;;;;;10.75;3.78;;;22.60;99.90;;;;;;4973186;28;20111;-77
2022/06/02 13:36:31;;;;;;;6.55;3.20;;;22.70;99.90;;;;;;4973772;28;20184;-78
2022/06/02 13:39:22;;;;;;;10.02;3.63;;;23.00;99.90;;;;;;4973242;28;20047;-67
2022/06/02 13:42:33;;;;;;;11.23;3.45;;;23.20;99.90;;;;;;4973471;28;20437;-75
2022/06/02 13:45:20;;;;;;;7.78;3.03;;;23.40;99.90;;;;;;4972713;28;20452;-78
2022/06/02 13:48:23;;;;;;;8.75;3.78;;;23.70;99.90;;;;;;4973309;28;20127;-79
2022/06/02 13:51:01;;;;;;;10.80;3.17;;;23.60;99.90;;;;;;4973149;28;20038;-65
2022/06/02 13:53:33;;;;;;;7.15;2.97;;;23.60;99.90;;;;;;4972892;28;20494;-69
2022/06/02 13:59:33;;;;;;;10.38;2.95;;;24.00;99.90;;;;;;4973374;28;20145;-71
2022/06/02 14:02:25;;;;;;;9.18;2.63;;;24.20;99.70;;;;;;4974585;28;20130;-68
2022/06/02 14:05:14;;;;;;;6.57;2.80;;;24.10;99.60;;;;;;4973970;28;20042;-73
2022/06/02 14:07:57;;;;;;;8.38;4.13;;;24.30;99.90;;;;;;4973087;28;20078;-74
2022/06/02 14:11:11;;;;;;;5.60;3.08;;;24.50;99.50;;;;;;4972838;28;20061;-71
2022/06/02 14:14:00;;;;;;;5.13;2.55;;;24.50;99.40;;;;;;4954090;28;20386;-74
2022/06/02 14:17:07;;;;;;;15.93;3.53;;;24.70;98.10;;;;;;4974475;28;20559;-75
2022/06/02 14:19:53;;;;;;;6.95;2.58;;;24.80;98.50;;;;;;4960215;28;20046;-74
2022/06/02 14:22:37;;;;;;;5.93;2.10;;;24.80;97.70;;;;;;4954131;28;20042;-75
2022/06/02 14:25:16;;;;;;;5.70;2.00;;;24.80;97.00;;;;;;4974924;28;20732;-79
2022/06/02 14:28:00;;;;;;;6.85;2.30;;;25.00;96.30;;;;;;4974914;28;20126;-79
2022/06/02 14:30:32;;;;;;;3.10;1.67;;;25.10;95.90;;;;;;4975008;28;20415;-79
2022/06/02 14:33:14;;;;;;;4.18;2.25;;;25.10;94.60;;;;;;4974971;28;20047;-78
2022/06/02 14:35:54;;;;;;;5.68;1.80;;;25.00;95.20;;;;;;4974834;28;20039;-79
2022/06/02 14:38:29;;;;;;;6.00;2.47;;;25.10;95.60;;;;;;4974802;28;20049;-78
2022/06/02 14:41:01;;;;;;;4.97;2.08;;;25.00;96.20;;;;;;4974288;28;20122;-79
2022/06/02 14:43:48;;;;;;;5.65;2.65;;;24.80;95.90;;;;;;4974791;28;20061;-77